Flight Track Log - Related Links

Times and Time Zones

All times are in EDT time to prevent confusion due to time zone crossing. See the SWA1411 flight status page for this flight to view local times or setup timezone preferences in your user account.

Time Position Orientation Groundspeed Altitude Reporting Facility
EDT Latitude Longitude Course Direction KTS MPH feet Rate Location/Type
Wed 03:19:57 PM 33.9500 -118.4667 256° West 178 205 1,500  Level Southern California TRACON
Wed 03:21:18 PM 33.9297 -118.5647 158° South 217 250 4,100 2,000 Climbing Los Angeles Center
Wed 03:22:18 PM 33.8697 -118.5356 56° Northeast 132 152 6,200 2,600 Climbing Los Angeles Center
Wed 03:23:18 PM 33.9128 -118.4592 50° Northeast 120 138 9,300 2,150 Climbing Los Angeles Center
Wed 03:24:18 PM 33.9558 -118.3975 56° Northeast 191 220 10,500 1,200 Climbing Los Angeles Center
Wed 03:25:18 PM 34.0097 -118.3014 56° Northeast 275 316 11,700 1,884 Climbing Los Angeles Center
Wed 03:26:19 PM 34.0678 -118.1975 55° Northeast 317 365 14,300 2,250 Climbing Los Angeles Center
Wed 03:27:18 PM 34.1303 -118.0911 56° Northeast 352 405 16,200 2,168 Climbing Los Angeles Center
Wed 03:28:18 PM 34.1947 -117.9772 56° Northeast 368 423 18,600 1,950 Climbing Los Angeles Center
Wed 03:29:18 PM 34.2567 -117.8681 58° Northeast 375 432 20,100 1,550 Climbing Los Angeles Center
Wed 03:30:18 PM 34.3167 -117.7536 56° Northeast 393 452 21,700 1,600 Climbing Los Angeles Center
Wed 03:31:18 PM 34.3808 -117.6364 54° Northeast 403 464 23,300 1,500 Climbing Los Angeles Center
Wed 03:32:18 PM 34.4492 -117.5219 49° Northeast 408 470 24,700 1,450 Climbing Los Angeles Center
Wed 03:33:18 PM 34.5253 -117.4147 49° Northeast 415 478 26,200 1,350 Climbing Los Angeles Center
Wed 03:34:18 PM 34.6036 -117.3047 49° Northeast 421 484 27,400 1,350 Climbing Los Angeles Center
Wed 03:35:18 PM 34.6819 -117.1947 50° Northeast 426 490 28,900 1,550 Climbing Los Angeles Center
Wed 03:36:18 PM 34.7581 -117.0844 49° Northeast 426 490 30,500 1,250 Climbing Los Angeles Center
Wed 03:37:18 PM 34.8319 -116.9792 49° Northeast 426 490 31,400 900 Climbing Los Angeles Center
Wed 03:38:18 PM 34.9078 -116.8711 48° Northeast 426 490 32,300 850 Climbing Los Angeles Center
Wed 03:39:18 PM 34.9875 -116.7628 50° Northeast 426 490 33,100 700 Climbing Los Angeles Center
Wed 03:40:18 PM 35.0633 -116.6517 50° Northeast 426 490 33,700 750 Climbing Los Angeles Center
Wed 03:41:18 PM 35.1408 -116.5378 49° Northeast 426 490 34,600 650 Climbing Los Angeles Center
Wed 03:42:18 PM 35.2206 -116.4264 50° Northeast 426 490 35,000 200 Climbing Los Angeles Center
Wed 03:43:18 PM 35.2958 -116.3147 49° Northeast 426 490 35,000  Level Los Angeles Center
Wed 03:44:18 PM 35.3775 -116.1978 50° Northeast 431 496 35,000  Level Los Angeles Center
Wed 03:45:18 PM 35.4589 -116.0806 50° Northeast 431 496 35,000  Level Los Angeles Center
Wed 03:46:18 PM 35.5381 -115.9656 70° East 431 496 35,000  Level Los Angeles Center
Wed 03:47:19 PM 35.5817 -115.8200 74° East 437 503 35,000  Level Los Angeles Center
Wed 03:48:18 PM 35.6167 -115.6742 76° East 437 503 35,000  Level Los Angeles Center
Wed 03:49:18 PM 35.6472 -115.5233 74° East 442 509 35,000  Level Los Angeles Center
Wed 03:50:18 PM 35.6819 -115.3719 75° East 447 514 35,000  Level Los Angeles Center
Wed 03:51:18 PM 35.7164 -115.2183 76° East 454 522 35,000  Level Los Angeles Center
Wed 03:52:18 PM 35.7464 -115.0669 74° East 454 522 35,000  Level Los Angeles Center
Wed 03:53:18 PM 35.7825 -114.9103 75° East 454 522 35,000  Level Los Angeles Center
Wed 03:54:18 PM 35.8164 -114.7586 75° East 454 522 35,000  Level Los Angeles Center
Wed 03:55:18 PM 35.8500 -114.6044 75° East 454 522 35,000  Level Los Angeles Center
Wed 03:56:18 PM 35.8833 -114.4475 76° East 454 522 35,000  Level Los Angeles Center
Wed 03:57:18 PM 35.9125 -114.3033 75° East 467 537 35,000  Level Los Angeles Center
Wed 03:58:18 PM 35.9475 -114.1383 75° East 467 537 35,000  Level Los Angeles Center
Wed 03:59:18 PM 35.9806 -113.9808 75° East 467 537 35,000  Level Los Angeles Center
Wed 04:00:18 PM 36.0111 -113.8389 74° East 474 545 35,000  Level Los Angeles Center
Wed 04:01:18 PM 36.0478 -113.6811 76° East 474 545 35,000  Level Los Angeles Center
Wed 04:02:18 PM 36.0800 -113.5261 77° East 474 545 35,000  Level Los Angeles Center
Wed 04:03:18 PM 36.1119 -113.3578 77° East 468 539 35,000  Level Los Angeles Center
Wed 04:04:18 PM 36.1397 -113.2053 76° East 461 531 35,000  Level Los Angeles Center
Wed 04:05:18 PM 36.1711 -113.0472 76° East 456 525 35,000  Level Los Angeles Center
Wed 04:06:18 PM 36.2025 -112.8864 77° East 456 525 35,000  Level Los Angeles Center
Wed 04:07:18 PM 36.2317 -112.7281 76° East 461 531 35,000  Level Los Angeles Center
Wed 04:08:18 PM 36.2625 -112.5722 76° East 461 531 35,000  Level Los Angeles Center
Wed 04:09:18 PM 36.2897 -112.4344 77° East 466 536 35,000  Level Los Angeles Center
Wed 04:10:18 PM 36.3183 -112.2761 77° East 466 536 35,000  Level Los Angeles Center
Wed 04:12:06 PM 36.3697 -111.9933 77° East 473 544 35,000  Level Denver Center
Wed 04:13:06 PM 36.3981 -111.8356 77° East 467 537 35,000  Level Denver Center
Wed 04:14:06 PM 36.4261 -111.6803 77° East 467 537 35,000  Level Denver Center
Wed 04:15:06 PM 36.4592 -111.5072 77° East 467 537 35,000  Level Denver Center
Wed 04:16:06 PM 36.4889 -111.3467 78° East 467 537 35,000  Level Denver Center
Wed 04:17:06 PM 36.5144 -111.1908 76° East 467 537 35,000  Level Denver Center
Wed 04:18:06 PM 36.5458 -111.0328 78° East 467 537 35,000  Level Denver Center
Wed 04:20:06 PM 36.5997 -110.7208 77° East 467 537 35,000  Level Denver Center
Wed 04:21:06 PM 36.6283 -110.5622 79° East 467 537 35,000  Level Denver Center
Wed 04:22:06 PM 36.6503 -110.4186 77° East 467 537 35,000  Level Denver Center
Wed 04:23:06 PM 36.6806 -110.2597 77° East 467 537 35,000  Level Denver Center
Wed 04:24:06 PM 36.7089 -110.1008 79° East 467 537 35,000  Level Denver Center
Wed 04:25:06 PM 36.7325 -109.9442 77° East 462 532 35,000  Level Denver Center
Wed 04:26:06 PM 36.7622 -109.7847 80° East 468 539 35,000  Level Denver Center
Wed 04:27:06 PM 36.7856 -109.6253 75° East 468 539 35,000  Level Denver Center
Wed 04:28:06 PM 36.8189 -109.4661 78° East 468 539 35,000  Level Denver Center
Wed 04:29:06 PM 36.8458 -109.3117 79° East 451 519 35,000  Level Denver Center
Wed 04:30:06 PM 36.8731 -109.1364 79° East 462 532 35,000  Level Denver Center
Wed 04:31:06 PM 36.8978 -108.9739 78° East 464 534 35,000  Level Denver Center
Wed 04:32:06 PM 36.9214 -108.8344 79° East 469 540 35,000  Level Denver Center
Wed 04:33:06 PM 36.9500 -108.6561 79° East 469 540 35,000  Level Denver Center
Wed 04:34:06 PM 36.9739 -108.4986 80° East 463 533 35,000  Level Denver Center
Wed 04:35:06 PM 36.9975 -108.3356 78° East 462 532 35,000  Level Denver Center
Wed 04:36:06 PM 37.0206 -108.1958 79° East 465 535 35,000  Level Denver Center
Wed 04:37:06 PM 37.0481 -108.0197 80° East 460 529 35,000  Level Denver Center
Wed 04:38:06 PM 37.0708 -107.8617 79° East 459 528 35,000  Level Denver Center
Wed 04:39:06 PM 37.0958 -107.6981 80° East 464 534 35,000  Level Denver Center
Wed 04:40:06 PM 37.1158 -107.5581 79° East 464 534 35,000  Level Denver Center
Wed 04:41:06 PM 37.1425 -107.3786 79° East 470 541 35,000  Level Denver Center
Wed 04:42:06 PM 37.1667 -107.2203 79° East 465 535 35,000  Level Denver Center
Wed 04:43:06 PM 37.1906 -107.0642 80° East 467 537 35,000  Level Denver Center
Wed 04:44:06 PM 37.2100 -106.9236 80° East 467 537 35,000  Level Denver Center
Wed 04:45:06 PM 37.2333 -106.7597 80° East 467 537 35,000  Level Denver Center
Wed 04:46:06 PM 37.2544 -106.6006 80° East 467 537 35,000  Level Denver Center
Wed 04:47:06 PM 37.2775 -106.4417 81° East 467 537 35,000  Level Denver Center
Wed 04:48:06 PM 37.2983 -106.2694 80° East 468 539 35,000  Level Denver Center
Wed 04:49:06 PM 37.3186 -106.1258 81° East 468 539 35,000  Level Denver Center
Wed 04:50:06 PM 37.3408 -105.9511 81° East 463 533 35,000  Level Denver Center
Wed 04:51:06 PM 37.3611 -105.7942 80° East 463 533 35,000  Level Denver Center
Wed 04:52:06 PM 37.3808 -105.6531 80° East 463 533 35,000  Level Denver Center
Wed 04:53:06 PM 37.4025 -105.4961 81° East 463 533 35,000  Level Denver Center
Wed 04:54:06 PM 37.4239 -105.3206 81° East 463 533 35,000  Level Denver Center
Wed 04:55:06 PM 37.4431 -105.1636 80° East 463 533 35,000  Level Denver Center
Wed 04:56:06 PM 37.4622 -105.0194 81° East 463 533 35,000  Level Denver Center
Wed 04:57:06 PM 37.4808 -104.8622 81° East 463 533 35,000  Level Denver Center
Wed 04:58:06 PM 37.5033 -104.6889 82° East 463 533 35,000  Level Denver Center
Wed 04:59:06 PM 37.5217 -104.5314 81° East 463 533 35,000  Level Denver Center
Wed 05:00:06 PM 37.5400 -104.3897 81° East 463 533 35,000  Level Denver Center
Wed 05:01:06 PM 37.5600 -104.2347 82° East 463 533 35,000  Level Denver Center
Wed 05:02:06 PM 37.5794 -104.0611 81° East 456 525 35,000  Level Denver Center
Wed 05:03:06 PM 37.5972 -103.9192 82° East 456 525 35,000  Level Denver Center
Wed 05:04:06 PM 37.6161 -103.7508 81° East 448 516 35,000  Level Denver Center
Wed 05:05:06 PM 37.6353 -103.5928 83° East 448 516 35,000  Level Denver Center
Wed 05:06:06 PM 37.6483 -103.4533 81° East 448 516 35,000  Level Denver Center
Wed 05:07:06 PM 37.6669 -103.2953 82° East 448 516 35,000  Level Denver Center
Wed 05:08:06 PM 37.6869 -103.1239 83° East 448 516 35,000  Level Denver Center
Wed 05:10:00 PM 37.7161 -102.8347 82° East 461 531 35,000  Level Kansas City Center
Wed 05:11:00 PM 37.7342 -102.6633 81° East 455 524 35,000  Level Kansas City Center
Wed 05:12:00 PM 37.7533 -102.5050 84° East 460 529 35,000  Level Kansas City Center
Wed 05:13:00 PM 37.7653 -102.3592 82° East 460 529 35,000  Level Kansas City Center
Wed 05:14:00 PM 37.7817 -102.2031 83° East 460 529 35,000  Level Kansas City Center
Wed 05:15:00 PM 37.7989 -102.0289 83° East 455 524 35,000  Level Kansas City Center
Wed 05:16:00 PM 37.8153 -101.8675 83° East 455 524 35,000  Level Kansas City Center
Wed 05:17:00 PM 37.8281 -101.7267 83° East 460 529 35,000  Level Kansas City Center
Wed 05:18:00 PM 37.8439 -101.5678 83° East 460 529 35,000  Level Kansas City Center
Wed 05:19:00 PM 37.8606 -101.3903 83° East 460 529 35,000  Level Kansas City Center
Wed 05:20:00 PM 37.8758 -101.2339 83° East 455 524 35,000  Level Kansas City Center
Wed 05:21:00 PM 37.8911 -101.0719 84° East 460 529 35,000  Level Kansas City Center
Wed 05:22:00 PM 37.9031 -100.9283 83° East 460 529 35,000  Level Kansas City Center
Wed 05:23:00 PM 37.9181 -100.7636 84° East 460 529 35,000  Level Kansas City Center
Wed 05:24:00 PM 37.9314 -100.5883 84° East 460 529 35,000  Level Kansas City Center
Wed 05:25:00 PM 37.9436 -100.4286 84° East 460 529 35,000  Level Kansas City Center
Wed 05:26:00 PM 37.9550 -100.2819 84° East 460 529 35,000  Level Kansas City Center
Wed 05:27:00 PM 37.9686 -100.1250 85° East 455 524 35,000  Level Kansas City Center
Wed 05:28:00 PM 37.9811 -99.9494 84° East 454 522 35,000  Level Kansas City Center
Wed 05:29:00 PM 37.9944 -99.7894 86° East 460 529 35,000  Level Kansas City Center
Wed 05:30:00 PM 38.0028 -99.6453 82° East 460 529 35,000  Level Kansas City Center
Wed 05:31:00 PM 38.0197 -99.4908 86° East 455 524 35,000  Level Kansas City Center
Wed 05:32:00 PM 38.0286 -99.3306 85° East 450 518 35,000  Level Kansas City Center
Wed 05:33:00 PM 38.0389 -99.1756 83° East 450 518 35,000  Level Kansas City Center
Wed 05:34:00 PM 38.0533 -99.0156 86° East 450 518 35,000  Level Kansas City Center
Wed 05:35:00 PM 38.0611 -98.8606 85° East 445 512 35,000  Level Kansas City Center
Wed 05:36:00 PM 38.0711 -98.7028 85° East 440 506 35,000  Level Kansas City Center
Wed 05:37:00 PM 38.0825 -98.5478 85° East 440 506 35,000  Level Kansas City Center
Wed 05:38:00 PM 38.0919 -98.3953 86° East 440 506 35,000  Level Kansas City Center
Wed 05:39:00 PM 38.1011 -98.2372 87° East 440 506 35,000  Level Kansas City Center
Wed 05:40:00 PM 38.1083 -98.0661 86° East 440 506 35,000  Level Kansas City Center
Wed 05:41:00 PM 38.1167 -97.9242 84° East 440 506 35,000  Level Kansas City Center
Wed 05:42:00 PM 38.1297 -97.7556 86° East 440 506 35,000  Level Kansas City Center
Wed 05:43:00 PM 38.1375 -97.6186 86° East 440 506 35,000  Level Kansas City Center
Wed 05:44:00 PM 38.1461 -97.4447 85° East 440 506 35,000  Level Kansas City Center
Wed 05:45:00 PM 38.1561 -97.2894 86° East 440 506 35,000  Level Kansas City Center
Wed 05:46:00 PM 38.1639 -97.1339 87° East 440 506 35,000  Level Kansas City Center
Wed 05:47:00 PM 38.1711 -96.9783 86° East 440 506 35,000  Level Kansas City Center
Wed 05:48:00 PM 38.1786 -96.8225 86° East 440 506 35,000  Level Kansas City Center
Wed 05:49:00 PM 38.1878 -96.6697 88° East 440 506 35,000  Level Kansas City Center
Wed 05:50:00 PM 38.1925 -96.5139 86° East 440 506 35,000  Level Kansas City Center
Wed 05:51:00 PM 38.2011 -96.3583 87° East 440 506 35,000  Level Kansas City Center
Wed 05:52:00 PM 38.2075 -96.2211 87° East 440 506 35,000  Level Kansas City Center
Wed 05:53:00 PM 38.2139 -96.0467 86° East 440 506 35,000  Level Kansas City Center
Wed 05:54:00 PM 38.2222 -95.8936 88° East 440 506 35,000  Level Kansas City Center
Wed 05:55:00 PM 38.2258 -95.7431 87° East 435 501 35,000  Level Kansas City Center
Wed 05:56:00 PM 38.2314 -95.6031 87° East 435 501 35,000  Level Kansas City Center
Wed 05:57:00 PM 38.2369 -95.4444 87° East 442 509 35,000  Level Kansas City Center
Wed 05:58:00 PM 38.2444 -95.2806 88° East 433 498 35,000  Level Kansas City Center
Wed 05:59:00 PM 38.2494 -95.1167 88° East 440 506 35,000  Level Kansas City Center
Wed 06:00:00 PM 38.2522 -94.9792 87° East 440 506 35,000  Level Kansas City Center
Wed 06:01:00 PM 38.2589 -94.8075 87° East 440 506 35,000  Level Kansas City Center
Wed 06:02:00 PM 38.2656 -94.6542 88° East 440 506 35,000  Level Kansas City Center
Wed 06:03:00 PM 38.2697 -94.5114 80° East 440 506 35,000  Level Kansas City Center
Wed 06:04:00 PM 38.2906 -94.3606 78° East 445 512 35,000  Level Kansas City Center
Wed 06:05:00 PM 38.3172 -94.1936 75° East 437 503 35,000  Level Kansas City Center
Wed 06:06:00 PM 38.3439 -94.0639 79° East 432 497 35,000  Level Kansas City Center
Wed 06:07:00 PM 38.3664 -93.9103 77° East 426 490 35,000  Level Kansas City Center
Wed 06:08:00 PM 38.3947 -93.7564 79° East 432 497 35,000  Level Kansas City Center
Wed 06:09:00 PM 38.4164 -93.6075 79° East 431 496 35,000  Level Kansas City Center
Wed 06:10:00 PM 38.4403 -93.4564 78° East 431 496 35,000  Level Kansas City Center
Wed 06:11:00 PM 38.4658 -93.3019 80° East 431 496 35,000 -50 Level Kansas City Center
Wed 06:12:00 PM 38.4872 -93.1506 78° East 431 496 34,900 -550 Descending Kansas City Center
Wed 06:13:00 PM 38.5125 -92.9961 52° Northeast 431 496 33,900 -1,100 Descending Kansas City Center
Wed 06:14:00 PM 38.5861 -92.8753 24° Northeast 417 480 32,700 -1,800 Descending Kansas City Center
Wed 06:15:00 PM 38.6956 -92.8117 64° Northeast 403 464 30,300 -2,250 Descending Kansas City Center
Wed 06:16:00 PM 38.7497 -92.6692 94° East 386 444 28,200 -2,000 Descending Kansas City Center
Wed 06:17:00 PM 38.7408 -92.5017 91° East 402 463 26,300 3,400 Descending Kansas City Center
Wed 06:18:00 PM 38.7381 -92.3475 93° East 420 483 35,000 -950 Climbing Kansas City Center
Wed 06:19:00 PM 38.7314 -92.2039 91° East 420 483 24,400 -5,700 Descending Kansas City Center
Wed 06:20:00 PM 38.7283 -92.0575 93° East 415 478 23,600 -900 Descending Kansas City Center
Wed 06:21:00 PM 38.7233 -91.9219 94° East 400 460 22,600 -1,800 Descending Kansas City Center
Wed 06:22:00 PM 38.7161 -91.7814 93° East 395 455 20,000 -2,750 Descending Kansas City Center
Wed 06:23:00 PM 38.7108 -91.6431 91° East 390 449 17,100 -2,804 Descending Kansas City Center
Wed 06:23:32 PM 38.7092 -91.5144 94° East 402 463 15,700 -2,333 Descending FAA TRACON SMA TRACON (SMA)
Wed 06:24:12 PM 38.7042 -91.4172 93° East 394 453 14,300 -2,025 Descending FAA TRACON SMA TRACON (SMA)
Wed 06:24:52 PM 38.7003 -91.3336 93° East 381 438 13,000 -2,400 Descending FAA TRACON SMA TRACON (SMA)
Wed 06:25:32 PM 38.6967 -91.2400 93° East 380 437 11,100 -1,725 Descending FAA TRACON SMA TRACON (SMA)
Wed 06:26:12 PM 38.6925 -91.1517 91° East 352 405 10,700 -825 Descending FAA TRACON SMA TRACON (SMA)
Wed 06:26:52 PM 38.6917 -91.0794 90° East 327 376 10,000 -1,063 Descending FAA TRACON SMA TRACON (SMA)
Wed 06:27:31 PM 38.6914 -91.0028 91° East 309 356 9,300 -1,063 Descending FAA TRACON SMA TRACON (SMA)
Wed 06:28:11 PM 38.6906 -90.9261 77° East 312 359 8,600 -963 Descending FAA TRACON SMA TRACON (SMA)
Wed 06:28:52 PM 38.7028 -90.8600 43° Northeast 316 364 8,000 -975 Descending FAA TRACON SMA TRACON (SMA)
Wed 06:29:31 PM 38.7475 -90.8067 41° Northeast 319 367 7,300 -835 Descending FAA TRACON SMA TRACON (SMA)
Wed 06:30:11 PM 38.7928 -90.7564 41° Northeast 311 358 6,900 -519 Descending FAA TRACON SMA TRACON (SMA)
Wed 06:30:52 PM 38.8297 -90.7156 40° Northeast 286 329 6,600 -593 Descending FAA TRACON SMA TRACON (SMA)
Wed 06:31:32 PM 38.8697 -90.6728 40° Northeast 268 308 6,100 -815 Descending FAA TRACON SMA TRACON (SMA)
Wed 06:32:13 PM 38.9033 -90.6369 92° East 256 295 5,500 -911 Descending FAA TRACON SMA TRACON (SMA)
Wed 06:32:51 PM 38.9019 -90.5889 146° Southeast 226 260 4,900 -900 Descending FAA TRACON SMA TRACON (SMA)
Wed 06:33:33 PM 38.8722 -90.5631 129° Southeast 184 212 4,300 -963 Descending FAA TRACON SMA TRACON (SMA)
Wed 06:34:12 PM 38.8497 -90.5269 124° Southeast 187 215 3,600 -769 Descending FAA TRACON SMA TRACON (SMA)
Wed 06:34:51 PM 38.8333 -90.4958 122° Southeast 168 193 3,300 -532 Descending FAA TRACON SMA TRACON (SMA)
Wed 06:35:31 PM 38.8156 -90.4594 122° Southeast 176 203 2,900 -741 Descending FAA TRACON SMA TRACON (SMA)
Wed 06:36:12 PM 38.7997 -90.4269 122° Southeast 175 201 2,300 -825 Descending FAA TRACON SMA TRACON (SMA)
Wed 06:36:51 PM 38.7831 -90.3931 122° Southeast 160 184 1,800 -825 Descending FAA TRACON SMA TRACON (SMA)
Wed 06:37:32 PM 38.7678 -90.3622 123° Southeast 145 167 1,200 -741 Descending FAA TRACON SMA TRACON (SMA)
Wed 06:38:12 PM 38.7544 -90.3358 123° Southeast 142 163 800 -600 Descending FAA TRACON SMA TRACON (SMA)

Login

Don't have an account? Register now (free) for customized features, flight alerts, and more!